Time;durP1;ratioP1;P1;durP2;ratioP2;P2;SDS_P1;SDS_P2;PMS_P1;PMS_P2;Temp;Humidity;BMP_temperature;BMP_pressure;BME280_temperature;BME280_humidity;BME280_pressure;Samples;Min_cycle;Max_cycle;Signal;HPM_P1;HPM_P2
2023/07/31 00:02:21;;;;;;;6.00;2.72;;;17.70;99.90;;;;;;7591482;19;20015;-77
2023/07/31 00:04:53;;;;;;;6.40;3.13;;;17.70;99.90;;;;;;7588837;19;20010;-77
2023/07/31 00:07:25;;;;;;;5.97;2.78;;;17.70;99.90;;;;;;7580879;19;20020;-77
2023/07/31 00:09:58;;;;;;;6.20;2.85;;;17.70;99.90;;;;;;7580183;19;21322;-77
2023/07/31 00:12:30;;;;;;;8.68;2.90;;;17.60;99.90;;;;;;7620921;19;20047;-77
2023/07/31 00:15:03;;;;;;;7.90;2.35;;;17.60;99.90;;;;;;7628490;19;20559;-77
2023/07/31 00:17:36;;;;;;;7.40;3.00;;;17.50;99.90;;;;;;7609252;19;20058;-77
2023/07/31 00:20:09;;;;;;;4.90;2.67;;;17.40;99.90;;;;;;7624235;19;20936;-77
2023/07/31 00:22:42;;;;;;;3.80;2.37;;;17.40;99.90;;;;;;7611250;19;20006;-77
2023/07/31 00:25:14;;;;;;;5.35;2.83;;;17.30;99.90;;;;;;7608971;19;20010;-77
2023/07/31 00:27:46;;;;;;;5.10;2.55;;;17.40;99.90;;;;;;7613433;19;20025;-78
2023/07/31 00:30:18;;;;;;;4.00;2.45;;;17.30;99.90;;;;;;7611712;19;20006;-78
2023/07/31 00:32:51;;;;;;;6.53;2.50;;;17.20;99.90;;;;;;7601009;19;20006;-76
2023/07/31 00:35:24;;;;;;;4.25;2.72;;;17.10;99.90;;;;;;7605068;19;20039;-76
2023/07/31 00:37:58;;;;;;;10.00;2.90;;;17.20;99.90;;;;;;7609604;19;20830;-77
2023/07/31 00:40:35;;;;;;;7.35;3.13;;;17.20;99.90;;;;;;7615512;19;20007;-76
2023/07/31 00:43:09;;;;;;;4.63;2.65;;;17.20;99.90;;;;;;7610769;19;20058;-76
2023/07/31 00:45:41;;;;;;;3.58;2.55;;;17.10;99.90;;;;;;7579515;19;21036;-76
2023/07/31 00:48:16;;;;;;;6.95;3.15;;;17.00;99.90;;;;;;7607892;19;20599;-76
2023/07/31 00:50:48;;;;;;;14.32;3.75;;;17.00;99.90;;;;;;7595995;19;20031;-77
2023/07/31 00:53:21;;;;;;;8.95;2.78;;;17.00;99.90;;;;;;7603355;19;20992;-76
2023/07/31 00:55:54;;;;;;;10.00;3.17;;;16.90;99.90;;;;;;7600083;19;20362;-76
2023/07/31 00:58:27;;;;;;;6.88;2.70;;;16.80;99.90;;;;;;7597061;19;20015;-77
2023/07/31 01:00:59;;;;;;;8.30;3.17;;;16.90;99.90;;;;;;7604415;19;20483;-77
2023/07/31 01:03:32;;;;;;;5.28;3.03;;;16.80;99.90;;;;;;7592922;19;20026;-79
2023/07/31 01:06:04;;;;;;;5.00;3.13;;;16.90;99.90;;;;;;7599637;19;20011;-77
2023/07/31 01:08:58;;;;;;;5.35;2.25;;;16.80;99.90;;;;;;7592103;19;20589;-76
2023/07/31 01:11:37;;;;;;;9.82;3.08;;;16.80;99.90;;;;;;7594984;19;20882;-77
2023/07/31 01:14:10;;;;;;;9.85;3.33;;;16.80;99.90;;;;;;7566323;19;20022;-76
2023/07/31 01:16:42;;;;;;;8.00;3.00;;;16.80;99.90;;;;;;7574184;19;20557;-76
2023/07/31 01:19:17;;;;;;;12.80;3.47;;;16.80;99.90;;;;;;7591937;19;20022;-77
2023/07/31 01:22:05;;;;;;;7.43;3.22;;;16.80;99.90;;;;;;7587278;19;20303;-76
2023/07/31 01:25:11;;;;;;;8.60;2.78;;;16.70;99.90;;;;;;7589324;19;20018;-76
2023/07/31 01:27:53;;;;;;;8.90;3.05;;;16.80;99.90;;;;;;7579983;19;20022;-77
2023/07/31 01:30:30;;;;;;;6.47;3.58;;;16.80;99.90;;;;;;7588538;19;20019;-77
2023/07/31 01:33:06;;;;;;;12.73;3.22;;;16.80;99.90;;;;;;7599685;19;20034;-77
2023/07/31 01:35:39;;;;;;;5.60;2.70;;;16.80;99.90;;;;;;7593518;19;20483;-77
2023/07/31 01:38:11;;;;;;;9.40;2.90;;;16.80;99.90;;;;;;7594379;19;20050;-75
2023/07/31 01:40:44;;;;;;;7.28;3.00;;;16.80;99.90;;;;;;7597378;19;20025;-76
2023/07/31 01:43:16;;;;;;;10.35;2.80;;;16.80;99.90;;;;;;7605630;19;20033;-76
2023/07/31 01:45:48;;;;;;;5.80;3.00;;;16.90;99.90;;;;;;7594347;19;20032;-77
2023/07/31 01:48:22;;;;;;;7.32;3.50;;;16.90;99.90;;;;;;7591736;19;20048;-75
2023/07/31 01:50:55;;;;;;;5.40;2.93;;;16.90;99.90;;;;;;7592257;19;20010;-76
2023/07/31 01:53:29;;;;;;;8.33;2.80;;;16.90;99.90;;;;;;7594183;19;20307;-75
2023/07/31 01:56:01;;;;;;;;;;;16.90;99.90;;;;;;7600593;19;20014;-77
2023/07/31 01:58:35;;;;;;;8.88;2.92;;;16.90;99.90;;;;;;7593783;19;19910;-78
2023/07/31 02:01:07;;;;;;;6.55;2.75;;;16.80;99.90;;;;;;7578932;19;20018;-79
2023/07/31 02:03:40;;;;;;;7.13;2.75;;;16.80;99.90;;;;;;7572568;19;20408;-77
2023/07/31 02:06:13;;;;;;;4.18;3.00;;;16.80;99.90;;;;;;7580454;19;20052;-78
2023/07/31 02:08:45;;;;;;;6.63;3.63;;;16.80;99.90;;;;;;7583386;19;20019;-79
2023/07/31 02:11:17;;;;;;;9.00;3.45;;;16.80;99.90;;;;;;7589836;19;20070;-78
2023/07/31 02:13:50;;;;;;;6.20;3.13;;;16.80;99.90;;;;;;7597056;19;20574;-78
2023/07/31 02:16:22;;;;;;;5.65;2.35;;;16.90;99.90;;;;;;7599823;19;20034;-78
2023/07/31 02:18:55;;;;;;;5.65;2.97;;;16.90;99.90;;;;;;7585820;19;20018;-78
2023/07/31 02:21:27;;;;;;;6.32;2.83;;;16.90;99.90;;;;;;7597993;19;20018;-78
2023/07/31 02:23:59;;;;;;;6.32;3.30;;;16.80;99.90;;;;;;7594472;19;20021;-79
2023/07/31 02:26:31;;;;;;;4.65;2.95;;;16.80;99.90;;;;;;7608108;19;20489;-76
2023/07/31 02:29:04;;;;;;;3.80;2.83;;;16.90;99.90;;;;;;7608857;19;20015;-78
2023/07/31 02:31:36;;;;;;;7.95;2.97;;;16.80;99.90;;;;;;7570095;19;21706;-77
2023/07/31 02:34:10;;;;;;;7.00;3.38;;;16.70;99.90;;;;;;7581019;19;20025;-78
2023/07/31 02:36:42;;;;;;;8.63;3.53;;;16.60;99.90;;;;;;7577456;19;20011;-77
2023/07/31 02:39:14;;;;;;;7.40;2.95;;;16.60;99.90;;;;;;7579569;19;20052;-78
2023/07/31 02:41:47;;;;;;;5.85;2.65;;;16.50;99.90;;;;;;7573753;19;20017;-77
2023/07/31 02:44:20;;;;;;;8.13;3.28;;;16.60;99.90;;;;;;7530261;19;20012;-78
2023/07/31 02:46:53;;;;;;;4.82;2.78;;;16.60;99.90;;;;;;7562853;19;20022;-76
2023/07/31 02:49:25;;;;;;;5.93;3.22;;;16.60;99.90;;;;;;7586437;19;20807;-77
2023/07/31 02:51:57;;;;;;;6.82;3.40;;;16.50;99.90;;;;;;7576696;19;20114;-77
2023/07/31 02:54:30;;;;;;;4.30;2.83;;;16.40;99.90;;;;;;7573963;19;20332;-76
2023/07/31 02:57:03;;;;;;;10.63;3.10;;;16.50;99.90;;;;;;7593500;19;20078;-77
2023/07/31 02:59:35;;;;;;;7.18;2.80;;;16.40;99.90;;;;;;7572591;19;20028;-76
2023/07/31 03:02:08;;;;;;;8.40;3.22;;;16.30;99.90;;;;;;7563804;19;20022;-76
2023/07/31 03:04:41;;;;;;;5.73;3.30;;;16.30;99.90;;;;;;7590606;19;20031;-78
2023/07/31 03:07:13;;;;;;;7.95;3.53;;;16.30;99.90;;;;;;7581169;19;21068;-77
2023/07/31 03:09:45;;;;;;;6.43;2.85;;;16.20;99.90;;;;;;7570190;19;20025;-78
2023/07/31 03:12:19;;;;;;;6.18;3.33;;;16.10;99.90;;;;;;7586762;19;20045;-76
2023/07/31 03:14:52;;;;;;;7.60;3.40;;;16.00;99.90;;;;;;7595183;19;20636;-78
2023/07/31 03:17:24;;;;;;;14.82;3.72;;;15.90;99.90;;;;;;7598595;19;20014;-78
2023/07/31 03:19:57;;;;;;;7.28;3.55;;;15.80;99.90;;;;;;7586676;19;20507;-78
2023/07/31 03:22:29;;;;;;;6.43;3.25;;;15.70;99.90;;;;;;7589451;19;20018;-77
2023/07/31 03:25:02;;;;;;;8.25;3.47;;;15.60;99.90;;;;;;7574951;19;20930;-76
2023/07/31 03:27:35;;;;;;;6.10;3.30;;;15.60;99.90;;;;;;7575854;19;20021;-77
2023/07/31 03:30:07;;;;;;;7.53;3.33;;;15.60;99.90;;;;;;7562645;19;20059;-77
2023/07/31 03:32:41;;;;;;;;;;;15.50;99.90;;;;;;7586140;19;20011;-76
2023/07/31 03:35:13;;;;;;;8.38;3.65;;;15.50;99.90;;;;;;7580301;19;19935;-78
2023/07/31 03:37:47;;;;;;;11.60;3.35;;;15.50;99.90;;;;;;7602883;19;20018;-77
2023/07/31 03:40:19;;;;;;;12.43;3.53;;;15.40;99.90;;;;;;7586686;19;20043;-78
2023/07/31 03:42:51;;;;;;;6.40;3.33;;;15.40;99.90;;;;;;7577094;19;20015;-77
2023/07/31 03:45:24;;;;;;;11.32;4.00;;;15.40;99.90;;;;;;7568207;19;22677;-78
2023/07/31 03:47:56;;;;;;;9.30;3.70;;;15.30;99.90;;;;;;7552679;19;20079;-77
2023/07/31 03:50:30;;;;;;;11.52;3.67;;;15.30;99.90;;;;;;7570462;19;20021;-76
2023/07/31 03:53:02;;;;;;;8.67;3.60;;;15.20;99.90;;;;;;7583849;19;20014;-77
2023/07/31 03:55:35;;;;;;;14.07;3.70;;;15.20;99.90;;;;;;7583241;19;20774;-77
2023/07/31 03:58:07;;;;;;;10.48;3.72;;;15.20;99.90;;;;;;7588626;19;20025;-78
2023/07/31 04:00:40;;;;;;;4.57;3.17;;;15.20;99.90;;;;;;7585092;19;20015;-75
2023/07/31 04:03:12;;;;;;;9.70;4.32;;;15.20;99.90;;;;;;7599286;19;20021;-78
2023/07/31 04:05:45;;;;;;;13.27;3.58;;;15.20;99.90;;;;;;7594233;19;20026;-81
2023/07/31 04:08:17;;;;;;;8.48;3.70;;;15.30;99.90;;;;;;7579188;19;21912;-76
2023/07/31 04:10:49;;;;;;;8.10;4.18;;;15.30;99.90;;;;;;7604081;19;20696;-76
2023/07/31 04:13:22;;;;;;;8.00;3.65;;;15.30;99.90;;;;;;7618002;19;20014;-77
2023/07/31 04:15:55;;;;;;;7.60;3.78;;;15.30;99.90;;;;;;7606052;19;20022;-77
2023/07/31 04:18:27;;;;;;;9.80;4.18;;;15.30;99.90;;;;;;7612743;19;20847;-76
2023/07/31 04:21:01;;;;;;;8.80;3.95;;;15.30;99.90;;;;;;7599620;19;20399;-75
2023/07/31 04:23:33;;;;;;;8.32;3.20;;;15.30;99.90;;;;;;7612107;19;20010;-78
2023/07/31 04:26:06;;;;;;;8.57;3.45;;;15.40;99.90;;;;;;7601884;19;20615;-77
2023/07/31 04:28:38;;;;;;;8.55;3.92;;;15.40;99.90;;;;;;7613375;19;20014;-75
2023/07/31 04:31:11;;;;;;;11.73;3.80;;;15.40;99.90;;;;;;7606950;19;20021;-76
2023/07/31 04:33:43;;;;;;;9.55;4.20;;;15.40;99.90;;;;;;7614200;19;20010;-76
2023/07/31 04:36:15;;;;;;;8.73;3.70;;;15.60;99.90;;;;;;7608301;19;20022;-79
2023/07/31 04:38:47;;;;;;;13.60;4.00;;;15.70;99.90;;;;;;7605959;19;20022;-78
2023/07/31 04:41:20;;;;;;;6.88;4.10;;;15.70;99.90;;;;;;7583623;19;20022;-76
2023/07/31 04:43:52;;;;;;;9.23;3.92;;;15.60;99.90;;;;;;7605069;19;20395;-77
2023/07/31 04:46:24;;;;;;;7.38;4.38;;;15.60;99.90;;;;;;7614584;19;20045;-77
2023/07/31 04:48:57;;;;;;;7.97;3.70;;;15.70;99.90;;;;;;7619874;19;20050;-77
2023/07/31 04:51:29;;;;;;;8.70;3.83;;;15.60;99.90;;;;;;7605497;19;20007;-77
2023/07/31 04:54:02;;;;;;;7.25;3.63;;;15.60;99.90;;;;;;7602163;19;20029;-77
2023/07/31 04:56:34;;;;;;;6.72;3.35;;;15.70;99.90;;;;;;7618665;19;20086;-77
2023/07/31 04:59:06;;;;;;;12.50;3.92;;;15.70;99.90;;;;;;7623505;19;20641;-77
2023/07/31 05:01:38;;;;;;;6.05;3.83;;;15.70;99.90;;;;;;7600046;19;20014;-78
2023/07/31 05:04:14;;;;;;;6.78;3.33;;;15.80;99.90;;;;;;7592365;19;20017;-77
2023/07/31 05:06:46;;;;;;;9.57;3.83;;;15.80;99.90;;;;;;7605801;19;20015;-77
2023/07/31 05:09:19;;;;;;;6.35;3.63;;;15.80;99.90;;;;;;7578139;19;20651;-76
2023/07/31 05:11:52;;;;;;;6.75;4.07;;;15.90;99.90;;;;;;7595712;19;20014;-76
2023/07/31 05:14:26;;;;;;;9.95;3.88;;;16.00;99.90;;;;;;7615522;19;20011;-75
2023/07/31 05:16:58;;;;;;;7.13;3.38;;;16.20;99.90;;;;;;7612720;19;20022;-76
2023/07/31 05:19:30;;;;;;;6.05;3.53;;;16.30;99.90;;;;;;7598772;19;20017;-77
2023/07/31 05:22:03;;;;;;;6.07;3.40;;;16.40;99.90;;;;;;7606819;19;20709;-78
2023/07/31 05:24:35;;;;;;;9.77;3.60;;;16.50;99.90;;;;;;7606220;19;20010;-77
2023/07/31 05:27:08;;;;;;;9.68;3.97;;;16.70;99.90;;;;;;7600942;19;20018;-77
2023/07/31 05:29:40;;;;;;;8.50;4.03;;;16.70;99.90;;;;;;7601466;19;20018;-76
2023/07/31 05:32:13;;;;;;;5.72;3.33;;;16.80;99.90;;;;;;7605882;19;20015;-76
2023/07/31 05:34:45;;;;;;;6.93;3.72;;;16.90;99.90;;;;;;7613459;19;20089;-75
2023/07/31 05:37:18;;;;;;;5.07;3.25;;;17.00;99.90;;;;;;7595993;19;21836;-75
2023/07/31 05:39:51;;;;;;;10.80;3.58;;;17.10;99.90;;;;;;7601810;19;20070;-77
2023/07/31 05:42:23;;;;;;;6.78;3.80;;;17.20;99.90;;;;;;7597947;19;20018;-76
2023/07/31 05:44:55;;;;;;;11.77;3.67;;;17.20;99.90;;;;;;7604116;19;20021;-76
2023/07/31 05:47:28;;;;;;;6.15;3.40;;;17.30;99.90;;;;;;7617049;19;20014;-75
2023/07/31 05:50:00;;;;;;;11.27;3.78;;;17.40;99.90;;;;;;7619062;19;20541;-76
2023/07/31 05:52:32;;;;;;;6.53;3.50;;;17.50;99.90;;;;;;7615932;19;20014;-76
2023/07/31 05:55:05;;;;;;;7.47;3.00;;;17.50;99.90;;;;;;7609479;19;20025;-77
2023/07/31 05:57:37;;;;;;;7.00;3.50;;;17.60;99.90;;;;;;7616560;19;20009;-76
2023/07/31 06:00:10;;;;;;;10.68;3.33;;;17.60;99.90;;;;;;7609321;19;20520;-76
2023/07/31 06:02:42;;;;;;;5.97;3.28;;;17.70;99.90;;;;;;7597723;19;20029;-75
2023/07/31 06:05:14;;;;;;;7.75;3.55;;;17.70;99.90;;;;;;7617793;19;20669;-77
2023/07/31 06:07:47;;;;;;;6.75;3.40;;;17.80;99.90;;;;;;7612623;19;20555;-79
2023/07/31 06:10:20;;;;;;;4.40;3.13;;;18.00;99.90;;;;;;7606926;19;20047;-77
2023/07/31 06:12:52;;;;;;;7.50;3.53;;;18.00;99.90;;;;;;7609120;19;20271;-77
2023/07/31 06:15:24;;;;;;;6.13;2.80;;;18.10;99.90;;;;;;7615752;19;20019;-77
2023/07/31 06:17:57;;;;;;;5.38;2.75;;;18.10;99.90;;;;;;7607178;19;20919;-77
2023/07/31 06:20:29;;;;;;;8.17;3.00;;;18.10;99.90;;;;;;7613304;19;20383;-77
2023/07/31 06:23:03;;;;;;;9.23;3.00;;;18.20;99.90;;;;;;7610327;19;20057;-77
2023/07/31 06:25:35;;;;;;;9.80;2.90;;;18.30;99.90;;;;;;7602887;19;20010;-77
2023/07/31 06:28:08;;;;;;;9.05;3.05;;;18.40;99.90;;;;;;7613066;19;20419;-77
2023/07/31 06:30:40;;;;;;;5.95;2.35;;;18.50;99.90;;;;;;7602609;19;20029;-77
2023/07/31 06:33:12;;;;;;;8.40;2.85;;;18.70;99.90;;;;;;7605176;19;20015;-79
2023/07/31 06:35:45;;;;;;;5.63;2.92;;;18.60;99.90;;;;;;7610670;19;20890;-78
2023/07/31 06:38:24;;;;;;;5.33;3.00;;;18.60;99.90;;;;;;7601877;19;20026;-77
2023/07/31 06:40:56;;;;;;;6.88;3.42;;;18.60;99.90;;;;;;7585874;19;20312;-76
2023/07/31 06:43:28;;;;;;;6.05;3.17;;;18.60;99.90;;;;;;7596379;19;20117;-76
2023/07/31 06:46:07;;;;;;;7.35;3.58;;;18.60;99.90;;;;;;7596071;19;20527;-77
2023/07/31 06:48:39;;;;;;;8.18;2.92;;;18.70;99.90;;;;;;7590956;19;20014;-77
2023/07/31 06:51:12;;;;;;;7.13;3.10;;;18.70;99.90;;;;;;7602980;19;20010;-76
2023/07/31 06:53:45;;;;;;;6.82;2.75;;;18.60;99.90;;;;;;7592480;19;20643;-77
2023/07/31 06:56:17;;;;;;;6.30;3.00;;;18.60;99.90;;;;;;7607460;19;20018;-77
2023/07/31 06:58:49;;;;;;;6.40;3.17;;;18.60;99.90;;;;;;7597567;19;20022;-75
2023/07/31 07:01:21;;;;;;;6.00;3.00;;;18.70;99.90;;;;;;7584213;19;20022;-75
2023/07/31 07:03:54;;;;;;;5.30;2.85;;;18.70;99.90;;;;;;7606867;19;20020;-76
2023/07/31 07:06:27;;;;;;;6.05;2.72;;;18.70;99.90;;;;;;7595825;19;20018;-75
2023/07/31 07:08:59;;;;;;;6.07;2.72;;;18.90;99.90;;;;;;7601544;19;20123;-75
2023/07/31 07:11:32;;;;;;;7.45;3.05;;;19.00;99.90;;;;;;7610902;19;20011;-76
2023/07/31 07:14:04;;;;;;;7.47;2.95;;;19.00;99.90;;;;;;7603121;19;20110;-76
2023/07/31 07:16:36;;;;;;;7.53;3.10;;;19.10;99.90;;;;;;7591266;19;20021;-77
2023/07/31 07:19:09;;;;;;;5.25;2.85;;;19.10;99.90;;;;;;7576432;19;20018;-78
2023/07/31 07:21:42;;;;;;;5.43;2.53;;;19.10;99.90;;;;;;7598198;19;20050;-76
2023/07/31 07:24:15;;;;;;;3.97;2.75;;;19.10;99.90;;;;;;7598501;19;20015;-76
2023/07/31 07:26:47;;;;;;;3.63;2.30;;;19.10;99.90;;;;;;7609377;19;20015;-78
2023/07/31 07:29:19;;;;;;;4.13;2.88;;;19.20;99.90;;;;;;7613702;19;20014;-78
2023/07/31 07:31:51;;;;;;;6.70;2.47;;;19.20;99.90;;;;;;7609300;19;20022;-76
2023/07/31 07:34:26;;;;;;;8.55;2.55;;;19.20;99.90;;;;;;7609599;19;20537;-77
2023/07/31 07:36:58;;;;;;;7.63;2.70;;;19.20;99.90;;;;;;7611966;19;20026;-76
2023/07/31 07:39:30;;;;;;;4.65;2.80;;;19.30;99.90;;;;;;7613868;19;20850;-77
2023/07/31 07:42:03;;;;;;;6.07;2.53;;;19.40;99.90;;;;;;7613508;19;20018;-77
2023/07/31 07:44:35;;;;;;;8.07;2.70;;;19.40;99.90;;;;;;7599280;19;20100;-75
2023/07/31 07:47:07;;;;;;;8.38;2.78;;;19.60;99.90;;;;;;7625266;19;20617;-76
2023/07/31 07:49:40;;;;;;;6.75;2.78;;;19.50;99.90;;;;;;7624626;19;20015;-74
2023/07/31 07:52:12;;;;;;;5.10;2.38;;;19.60;99.90;;;;;;7613173;19;20059;-76
2023/07/31 07:54:45;;;;;;;4.43;2.57;;;19.60;99.90;;;;;;7615899;19;20010;-76
2023/07/31 07:57:18;;;;;;;7.25;2.78;;;19.70;99.90;;;;;;7630870;19;20339;-77
2023/07/31 07:59:50;;;;;;;4.07;2.28;;;19.70;99.90;;;;;;7631693;19;20037;-75
2023/07/31 08:02:22;;;;;;;8.55;2.63;;;19.70;99.90;;;;;;7609537;19;20010;-77
2023/07/31 08:04:55;;;;;;;4.93;2.33;;;19.70;99.90;;;;;;7639469;19;20018;-76
2023/07/31 08:07:27;;;;;;;5.47;2.80;;;19.70;99.90;;;;;;7630568;19;20014;-77
2023/07/31 08:09:59;;;;;;;11.02;2.33;;;19.70;99.90;;;;;;7629463;19;20002;-77
2023/07/31 08:12:32;;;;;;;3.85;2.25;;;19.60;99.90;;;;;;7621260;19;20056;-78
2023/07/31 08:15:05;;;;;;;3.60;2.25;;;19.70;99.90;;;;;;7626189;19;20022;-77
2023/07/31 08:17:38;;;;;;;;;;;19.70;99.90;;;;;;7617194;19;20038;-78
2023/07/31 08:20:11;;;;;;;6.30;2.90;;;19.80;99.90;;;;;;7626657;19;19925;-76
2023/07/31 08:22:43;;;;;;;5.32;2.47;;;19.90;99.90;;;;;;7620070;19;20058;-77
2023/07/31 08:25:16;;;;;;;6.80;2.83;;;20.20;99.90;;;;;;7609378;19;20014;-77
2023/07/31 08:27:48;;;;;;;5.78;2.00;;;20.30;99.90;;;;;;7606690;19;20054;-77
2023/07/31 08:30:20;;;;;;;6.97;2.55;;;20.40;99.90;;;;;;7615897;19;20022;-78
2023/07/31 08:32:53;;;;;;;6.57;2.50;;;20.50;99.90;;;;;;7616456;19;20010;-75
2023/07/31 08:35:27;;;;;;;6.80;2.40;;;20.60;99.90;;;;;;7627695;19;20365;-77
2023/07/31 08:38:00;;;;;;;5.43;2.50;;;20.90;99.90;;;;;;7633695;19;20022;-75
2023/07/31 08:40:40;;;;;;;6.07;2.90;;;21.10;99.90;;;;;;7610452;19;20010;-76
2023/07/31 08:43:12;;;;;;;5.38;2.40;;;21.20;99.90;;;;;;7590580;19;20712;-76
2023/07/31 08:45:45;;;;;;;3.67;2.50;;;21.10;99.70;;;;;;7577776;19;20025;-76
2023/07/31 08:48:19;;;;;;;6.35;2.75;;;21.10;99.70;;;;;;7548143;19;20108;-76
2023/07/31 08:50:53;;;;;;;6.18;2.33;;;21.30;99.90;;;;;;7556317;19;22799;-74
2023/07/31 08:53:25;;;;;;;5.40;2.33;;;21.20;98.90;;;;;;7569842;19;20705;-76
2023/07/31 08:55:59;;;;;;;7.68;2.35;;;21.10;99.00;;;;;;7618822;19;20427;-75
2023/07/31 08:58:32;;;;;;;6.63;2.40;;;20.90;99.40;;;;;;7616731;19;20035;-75
2023/07/31 09:01:05;;;;;;;;;;;20.80;99.70;;;;;;7617820;19;20037;-75
2023/07/31 09:03:41;;;;;;;5.25;2.97;;;20.90;99.90;;;;;;7607208;19;20278;-75
2023/07/31 09:06:18;;;;;;;7.10;2.33;;;20.80;99.80;;;;;;7597571;19;20022;-73
2023/07/31 09:08:51;;;;;;;8.20;2.67;;;20.80;99.90;;;;;;7604703;19;20613;-76
2023/07/31 09:11:25;;;;;;;8.05;2.60;;;20.80;99.90;;;;;;7599252;19;20117;-77
2023/07/31 09:14:01;;;;;;;4.40;2.25;;;20.90;99.90;;;;;;7615176;19;20022;-76
2023/07/31 09:16:35;;;;;;;5.47;2.50;;;21.00;99.70;;;;;;7616361;19;20377;-75
2023/07/31 09:19:13;;;;;;;6.05;2.38;;;21.00;99.20;;;;;;7600775;19;20011;-79
2023/07/31 09:21:48;;;;;;;3.13;2.17;;;21.10;99.20;;;;;;7608563;19;20011;-79
2023/07/31 09:24:31;;;;;;;6.25;2.40;;;21.20;98.80;;;;;;7610087;19;20021;-76
2023/07/31 09:27:03;;;;;;;3.25;2.45;;;21.20;98.20;;;;;;7618979;19;20022;-76
2023/07/31 09:29:42;;;;;;;5.95;2.63;;;21.30;99.30;;;;;;7590432;19;20003;-79
2023/07/31 09:32:20;;;;;;;7.13;2.50;;;21.40;99.00;;;;;;7580210;19;20010;-81
2023/07/31 09:34:53;;;;;;;6.47;2.95;;;21.40;98.70;;;;;;7589364;19;20014;-80
2023/07/31 09:37:25;;;;;;;4.97;2.73;;;21.50;99.00;;;;;;7589760;19;20017;-77
2023/07/31 09:39:58;;;;;;;6.32;2.20;;;21.60;97.70;;;;;;7607316;19;20018;-77
2023/07/31 09:42:31;;;;;;;3.03;2.30;;;21.70;98.30;;;;;;7614269;19;20816;-77
2023/07/31 09:45:09;;;;;;;6.60;2.53;;;21.90;98.50;;;;;;7619310;19;20110;-78
2023/07/31 09:47:48;;;;;;;7.82;3.00;;;21.90;97.20;;;;;;7619323;19;20456;-78
2023/07/31 09:50:24;;;;;;;9.85;2.70;;;21.80;97.40;;;;;;7589822;19;20026;-78
2023/07/31 09:52:56;;;;;;;6.25;2.72;;;21.80;97.30;;;;;;7604969;19;20052;-78
2023/07/31 09:55:29;;;;;;;9.43;2.63;;;21.90;97.60;;;;;;7588126;19;20022;-78
2023/07/31 09:58:10;;;;;;;7.97;2.60;;;22.00;97.20;;;;;;7587373;19;20724;-79
2023/07/31 10:00:43;;;;;;;6.85;2.63;;;22.30;97.60;;;;;;7589361;19;20029;-77
2023/07/31 10:03:16;;;;;;;5.18;2.70;;;22.30;96.30;;;;;;7600452;19;20014;-77
2023/07/31 10:05:50;;;;;;;8.00;2.70;;;22.50;96.20;;;;;;7604186;19;20478;-77
2023/07/31 10:08:30;;;;;;;4.90;2.33;;;22.60;95.60;;;;;;7624006;19;20022;-76
2023/07/31 10:11:03;;;;;;;6.05;2.65;;;22.60;93.70;;;;;;7593452;19;20540;-76
2023/07/31 10:13:37;;;;;;;5.82;2.50;;;22.60;94.70;;;;;;7620419;19;20034;-75
2023/07/31 10:16:10;;;;;;;4.70;2.35;;;22.70;93.60;;;;;;7610502;19;20019;-77
2023/07/31 10:18:43;;;;;;;7.15;2.28;;;22.80;93.20;;;;;;7585285;19;20026;-77
2023/07/31 10:21:16;;;;;;;3.42;2.35;;;22.90;92.70;;;;;;7585913;19;20598;-76
2023/07/31 10:23:50;;;;;;;4.93;2.50;;;23.00;92.50;;;;;;7600846;19;20632;-77
2023/07/31 10:26:24;;;;;;;7.18;2.47;;;23.20;92.70;;;;;;7600483;19;20626;-76
2023/07/31 10:28:58;;;;;;;5.30;2.70;;;23.70;93.00;;;;;;7598933;19;20042;-77
2023/07/31 10:31:31;;;;;;;5.25;2.17;;;23.80;91.70;;;;;;7599011;19;20081;-76
2023/07/31 10:34:04;;;;;;;7.43;2.70;;;24.00;91.30;;;;;;7588873;19;20065;-78
2023/07/31 10:36:36;;;;;;;5.07;2.67;;;24.00;91.40;;;;;;7603888;19;20404;-78
2023/07/31 10:39:39;;;;;;;6.07;2.60;;;24.30;90.60;;;;;;7591775;19;20298;-77
2023/07/31 10:42:13;;;;;;;6.00;2.42;;;24.80;90.30;;;;;;7540217;19;20030;-77
2023/07/31 10:44:47;;;;;;;4.18;2.22;;;25.00;86.50;;;;;;7566083;19;20017;-76
2023/07/31 10:47:23;;;;;;;4.47;2.15;;;24.70;88.90;;;;;;7553955;19;20826;-76
2023/07/31 10:50:23;;;;;;;4.05;2.47;;;24.70;88.80;;;;;;6551513;19;10001055;-77
2023/07/31 10:52:57;;;;;;;5.35;2.40;;;24.90;85.60;;;;;;7083656;19;10001439;-75
2023/07/31 10:55:40;;;;;;;4.07;2.22;;;24.70;82.70;;;;;;7560207;19;20458;-75
2023/07/31 10:58:13;;;;;;;4.73;2.43;;;24.30;81.60;;;;;;7568963;19;20016;-77
2023/07/31 11:00:46;;;;;;;4.05;2.63;;;24.10;86.80;;;;;;7561103;19;20052;-77
2023/07/31 11:03:22;;;;;;;4.93;2.50;;;24.10;85.90;;;;;;7577457;19;20014;-76
2023/07/31 11:05:58;;;;;;;5.63;2.28;;;24.20;84.70;;;;;;7565550;19;20761;-77
2023/07/31 11:08:41;;;;;;;3.42;1.98;;;24.20;83.40;;;;;;7546107;19;20087;-76
2023/07/31 11:11:19;;;;;;;3.25;2.50;;;24.40;82.70;;;;;;7540652;19;20017;-77
2023/07/31 11:13:53;;;;;;;7.45;2.40;;;24.70;85.40;;;;;;7562356;19;20090;-77
2023/07/31 11:16:25;;;;;;;5.18;2.45;;;25.10;80.90;;;;;;7540660;19;20033;-76
2023/07/31 11:18:58;;;;;;;8.10;2.30;;;25.10;81.40;;;;;;7532931;19;20385;-78
2023/07/31 11:21:30;;;;;;;3.83;2.40;;;24.80;80.80;;;;;;7578231;19;20052;-78
2023/07/31 11:24:04;;;;;;;5.80;2.42;;;24.60;82.50;;;;;;7557011;19;20014;-79
2023/07/31 11:26:36;;;;;;;;;;;24.50;80.90;;;;;;7553717;19;20014;-76
2023/07/31 11:29:13;;;;;;;6.82;2.70;;;24.40;81.80;;;;;;7567473;19;20352;-74
2023/07/31 11:31:46;;;;;;;3.97;2.17;;;24.20;81.60;;;;;;7561322;19;20596;-75
2023/07/31 11:34:20;;;;;;;6.57;2.50;;;24.20;81.40;;;;;;7568265;19;20094;-78
2023/07/31 11:36:55;;;;;;;7.78;2.45;;;24.60;84.70;;;;;;7580592;19;20018;-75
2023/07/31 11:39:27;;;;;;;4.13;2.40;;;25.10;81.40;;;;;;7555845;19;20016;-75
2023/07/31 11:42:01;;;;;;;3.92;2.60;;;25.50;83.30;;;;;;7509685;19;20014;-76
2023/07/31 11:44:43;;;;;;;5.47;3.00;;;25.60;81.70;;;;;;7519585;19;20014;-75
2023/07/31 11:47:16;;;;;;;6.28;2.75;;;26.00;81.10;;;;;;7554762;19;20094;-77
2023/07/31 11:49:49;;;;;;;5.47;2.47;;;26.30;81.60;;;;;;7537279;19;20444;-76
2023/07/31 11:52:23;;;;;;;3.70;2.20;;;26.60;76.70;;;;;;7558837;19;20026;-76
2023/07/31 11:54:56;;;;;;;3.55;2.30;;;26.60;75.10;;;;;;7548391;19;20026;-74
2023/07/31 11:57:29;;;;;;;6.47;2.35;;;26.50;75.00;;;;;;7521736;19;20051;-73
2023/07/31 12:00:02;;;;;;;6.80;2.60;;;26.60;75.70;;;;;;7518905;19;20128;-73
2023/07/31 12:02:36;;;;;;;4.38;2.70;;;26.40;76.90;;;;;;7533555;19;20927;-72
2023/07/31 12:05:13;;;;;;;6.68;2.42;;;26.70;78.20;;;;;;7541963;19;20017;-73
2023/07/31 12:07:47;;;;;;;4.72;2.35;;;26.70;74.60;;;;;;7553439;19;20946;-74
2023/07/31 12:10:32;;;;;;;;;;;26.90;74.40;;;;;;7539079;19;20904;-74
2023/07/31 12:13:06;;;;;;;3.75;2.50;;;26.80;72.40;;;;;;7525744;19;19967;-74
2023/07/31 12:15:43;;;;;;;5.00;2.65;;;26.80;72.00;;;;;;7554528;19;20376;-74
2023/07/31 12:18:20;;;;;;;6.00;2.78;;;26.60;71.30;;;;;;7552504;19;20458;-73
2023/07/31 12:21:01;;;;;;;3.25;2.08;;;26.80;74.40;;;;;;7561869;19;20418;-75
2023/07/31 12:23:35;;;;;;;8.05;2.35;;;27.30;73.20;;;;;;7552529;19;20025;-75
2023/07/31 12:26:10;;;;;;;3.60;2.38;;;26.90;72.20;;;;;;7559667;19;20022;-74
2023/07/31 12:28:44;;;;;;;4.70;2.45;;;27.10;70.70;;;;;;7544543;19;20980;-74
2023/07/31 12:31:18;;;;;;;5.75;2.53;;;27.10;70.00;;;;;;7561563;19;20129;-74
2023/07/31 12:33:51;;;;;;;3.60;2.40;;;27.30;69.30;;;;;;7548304;19;20025;-73
2023/07/31 12:36:24;;;;;;;6.28;2.75;;;27.50;68.10;;;;;;7556421;19;20279;-74
2023/07/31 12:38:58;;;;;;;4.50;2.53;;;27.70;68.10;;;;;;7480150;19;20007;-74
2023/07/31 12:41:30;;;;;;;5.20;2.58;;;27.80;70.20;;;;;;7538761;19;20025;-75
2023/07/31 12:44:03;;;;;;;5.57;2.20;;;28.60;68.50;;;;;;7559652;19;20590;-74
2023/07/31 12:46:35;;;;;;;3.55;2.15;;;28.70;68.30;;;;;;7563228;19;20014;-74
2023/07/31 12:49:09;;;;;;;;;;;28.70;68.00;;;;;;7553667;19;20676;-74
2023/07/31 12:51:41;;;;;;;4.18;2.33;;;28.80;65.80;;;;;;7546236;19;24332;-74
2023/07/31 12:54:14;;;;;;;4.87;2.67;;;28.60;66.20;;;;;;7515641;19;20010;-75
2023/07/31 12:56:46;;;;;;;6.40;2.40;;;28.30;67.50;;;;;;7556055;19;20059;-74
2023/07/31 12:59:18;;;;;;;3.00;2.30;;;28.40;69.30;;;;;;7566863;19;20434;-74
2023/07/31 13:01:51;;;;;;;5.00;2.47;;;28.30;67.50;;;;;;7564612;19;20026;-75
2023/07/31 13:04:23;;;;;;;3.55;2.63;;;27.70;66.00;;;;;;7526862;19;20884;-73
2023/07/31 13:06:55;;;;;;;8.50;2.53;;;27.70;68.10;;;;;;7517198;19;20018;-74
2023/07/31 13:09:28;;;;;;;3.92;2.22;;;27.60;65.70;;;;;;7523672;19;21403;-74
2023/07/31 13:12:00;;;;;;;4.10;2.20;;;27.50;70.30;;;;;;7556639;19;20015;-75
2023/07/31 13:14:33;;;;;;;3.72;2.67;;;27.60;67.10;;;;;;7529661;19;21553;-73
2023/07/31 13:17:06;;;;;;;5.40;2.22;;;27.60;67.80;;;;;;7543230;19;20034;-74
2023/07/31 13:19:38;;;;;;;3.50;1.95;;;27.70;65.50;;;;;;7547226;19;20554;-73
2023/07/31 13:22:10;;;;;;;3.22;2.30;;;27.50;65.90;;;;;;7576350;19;20230;-75